createdAt,value
2019-05-14T00:01:03.727Z,51.40
2019-05-14T00:03:34.053Z,51.30
2019-05-14T00:06:04.433Z,51.10
2019-05-14T00:08:34.690Z,50.80
2019-05-14T00:11:04.951Z,50.90
2019-05-14T00:13:35.151Z,51.20
2019-05-14T00:16:05.358Z,51.90
2019-05-14T00:18:35.574Z,52.10
2019-05-14T00:21:05.743Z,52.40
2019-05-14T00:23:36.019Z,52.70
2019-05-14T00:26:06.213Z,53.00
2019-05-14T00:28:36.453Z,52.60
2019-05-14T00:31:06.640Z,52.90
2019-05-14T00:33:36.851Z,53.30
2019-05-14T00:36:07.045Z,53.40
2019-05-14T00:38:37.298Z,53.30
2019-05-14T00:41:07.483Z,53.20
2019-05-14T00:43:37.685Z,53.20
2019-05-14T00:46:07.956Z,53.20
2019-05-14T00:48:38.170Z,53.50
2019-05-14T00:51:08.359Z,53.60
2019-05-14T00:53:38.593Z,53.90
2019-05-14T00:56:10.903Z,54.20
2019-05-14T00:58:41.502Z,54.50
2019-05-14T01:01:12.357Z,54.60
2019-05-14T01:03:42.583Z,54.80
2019-05-14T01:06:12.787Z,55.00
2019-05-14T01:08:42.999Z,55.00
2019-05-14T01:11:13.199Z,55.20
2019-05-14T01:13:43.416Z,55.50
2019-05-14T01:16:13.603Z,55.90
2019-05-14T01:18:43.846Z,56.20
2019-05-14T01:21:14.029Z,56.60
2019-05-14T01:23:44.239Z,56.80
2019-05-14T01:26:14.421Z,56.60
2019-05-14T01:28:44.637Z,57.60
2019-05-14T01:31:14.978Z,57.20
2019-05-14T01:33:45.309Z,57.80
2019-05-14T01:36:15.490Z,58.50
2019-05-14T01:38:45.754Z,59.10
2019-05-14T01:41:15.968Z,59.80
2019-05-14T01:43:46.165Z,60.40
2019-05-14T01:46:16.420Z,61.20
2019-05-14T01:48:46.609Z,61.30
2019-05-14T01:51:16.835Z,61.50
2019-05-14T01:53:47.026Z,61.80
2019-05-14T01:56:17.242Z,62.00
2019-05-14T01:58:47.429Z,62.60
2019-05-14T02:01:17.643Z,62.60
2019-05-14T02:03:47.839Z,62.90
2019-05-14T02:06:18.077Z,63.50
2019-05-14T02:08:48.322Z,63.80
2019-05-14T02:11:18.684Z,64.20
2019-05-14T02:13:48.902Z,64.90
2019-05-14T02:16:19.093Z,65.80
2019-05-14T02:18:49.319Z,65.90
2019-05-14T02:21:19.502Z,67.40
2019-05-14T02:23:51.425Z,67.70
2019-05-14T02:26:22.178Z,67.20
2019-05-14T02:28:52.384Z,68.00
2019-05-14T02:31:22.571Z,67.30
2019-05-14T02:33:52.791Z,68.10
2019-05-14T02:36:22.971Z,68.30
2019-05-14T02:38:53.190Z,68.10
2019-05-14T02:41:23.410Z,68.70
2019-05-14T02:43:53.990Z,69.30
2019-05-14T02:46:24.299Z,69.80
2019-05-14T02:48:54.484Z,70.90
2019-05-14T02:51:24.788Z,71.50
2019-05-14T02:53:55.018Z,71.20
2019-05-14T02:56:25.207Z,70.40
2019-05-14T02:58:55.502Z,70.10
2019-05-14T03:01:25.690Z,70.60
2019-05-14T03:03:55.967Z,70.80
2019-05-14T03:06:28.989Z,71.00
2019-05-14T03:08:59.963Z,71.40
2019-05-14T03:11:30.102Z,71.80
2019-05-14T03:14:00.300Z,72.40
2019-05-14T03:16:35.402Z,72.30
2019-05-14T03:19:02.514Z,73.50
2019-05-14T03:21:32.880Z,73.70
2019-05-14T03:24:03.213Z,74.10
2019-05-14T03:26:33.450Z,74.50
2019-05-14T03:29:03.723Z,75.40
2019-05-14T03:31:34.253Z,75.80
2019-05-14T03:34:04.639Z,76.90
2019-05-14T03:36:35.634Z,78.00
2019-05-14T03:39:10.515Z,79.10
2019-05-14T03:41:39.999Z,80.50
2019-05-14T03:44:10.583Z,81.30
2019-05-14T03:46:49.774Z,82.20
2019-05-14T03:49:12.897Z,82.20
2019-05-14T03:51:43.152Z,82.50
2019-05-14T03:54:13.450Z,83.20
2019-05-14T03:56:43.712Z,83.10
2019-05-14T03:59:14.094Z,84.10
2019-05-14T04:01:44.449Z,83.50
2019-05-14T04:04:14.936Z,83.70
2019-05-14T04:06:49.753Z,84.10
2019-05-14T04:09:21.431Z,85.00
2019-05-14T04:11:54.336Z,85.00
2019-05-14T04:14:29.226Z,85.00
2019-05-14T04:17:09.774Z,84.80
2019-05-14T04:19:39.535Z,84.50
2019-05-14T04:22:13.759Z,84.50
2019-05-14T04:24:49.392Z,84.90
2019-05-14T04:27:20.519Z,84.70
2019-05-14T04:29:54.326Z,84.60
2019-05-14T04:32:24.632Z,84.30
2019-05-14T04:34:55.100Z,85.10
2019-05-14T04:37:25.455Z,85.20
2019-05-14T04:39:59.090Z,85.60
2019-05-14T04:42:29.523Z,86.10
2019-05-14T04:45:05.232Z,85.80
2019-05-14T04:47:37.242Z,86.20
2019-05-14T04:50:10.227Z,85.90
2019-05-14T04:52:40.282Z,85.50
2019-05-14T04:55:10.421Z,85.60
2019-05-14T04:57:40.703Z,85.40
2019-05-14T05:00:12.486Z,84.70
2019-05-14T05:02:43.086Z,84.50
2019-05-14T05:05:13.533Z,84.20
2019-05-14T05:07:44.142Z,83.70
2019-05-14T05:10:14.406Z,83.40
2019-05-14T05:12:44.624Z,83.10
2019-05-14T05:15:14.976Z,82.40
2019-05-14T05:17:51.717Z,82.50
2019-05-14T05:20:19.330Z,81.20
2019-05-14T05:22:49.073Z,80.40
2019-05-14T05:25:19.302Z,78.80
2019-05-14T05:27:49.488Z,76.70
2019-05-14T05:30:21.009Z,76.30
2019-05-14T05:32:51.201Z,75.80
2019-05-14T05:35:21.431Z,73.20
2019-05-14T05:37:51.651Z,73.20
2019-05-14T05:40:22.138Z,72.50
2019-05-14T05:42:52.322Z,71.10
2019-05-14T05:45:22.581Z,71.00
2019-05-14T05:47:57.458Z,71.00
2019-05-14T05:50:24.769Z,70.20
2019-05-14T05:52:54.975Z,69.90
2019-05-14T05:55:25.165Z,69.70
2019-05-14T05:57:58.478Z,70.30
2019-05-14T06:00:40.880Z,68.90
2019-05-14T06:03:11.434Z,68.90
2019-05-14T06:05:41.659Z,68.00
2019-05-14T06:08:12.603Z,67.90
2019-05-14T06:10:42.817Z,67.30
2019-05-14T06:13:14.036Z,66.70
2019-05-14T06:15:48.699Z,65.80
2019-05-14T06:18:19.434Z,65.00
2019-05-14T06:20:49.530Z,64.70
2019-05-14T06:23:19.791Z,64.70
2019-05-14T06:25:50.039Z,64.20
2019-05-14T06:28:21.058Z,64.30
2019-05-14T06:30:51.438Z,64.90
2019-05-14T06:33:21.622Z,65.40
2019-05-14T06:35:51.837Z,64.70
2019-05-14T06:38:22.037Z,64.10
2019-05-14T06:40:52.270Z,63.50
2019-05-14T06:43:22.796Z,63.10
2019-05-14T06:45:53.007Z,62.90
2019-05-14T06:48:30.308Z,63.00
2019-05-14T06:50:55.147Z,61.60
2019-05-14T06:53:25.362Z,61.60
2019-05-14T06:55:55.665Z,61.10
2019-05-14T06:58:25.862Z,60.90
2019-05-14T07:00:58.471Z,60.90
2019-05-14T07:03:28.270Z,59.20
2019-05-14T07:05:59.559Z,58.10
2019-05-14T07:08:29.897Z,57.90
2019-05-14T07:11:00.151Z,57.50
2019-05-14T07:13:30.361Z,57.30
2019-05-14T07:16:00.639Z,57.30
2019-05-14T07:18:45.738Z,57.20
2019-05-14T07:21:02.731Z,56.60
2019-05-14T07:23:32.924Z,56.50
2019-05-14T07:26:03.150Z,56.00
2019-05-14T07:28:33.336Z,55.40
2019-05-14T07:31:03.598Z,55.10
2019-05-14T07:33:33.795Z,54.90
2019-05-14T07:36:04.028Z,54.70
2019-05-14T07:38:34.250Z,54.50
2019-05-14T07:41:04.566Z,54.00
2019-05-14T07:43:34.757Z,53.70
2019-05-14T07:46:05.162Z,52.60
2019-05-14T07:48:35.351Z,51.40
2019-05-14T07:51:08.441Z,50.20
2019-05-14T07:53:41.622Z,48.40
2019-05-14T07:56:09.700Z,48.60
2019-05-14T07:58:39.949Z,48.00
2019-05-14T08:01:10.194Z,47.00
2019-05-14T08:03:40.421Z,47.00
2019-05-14T08:06:10.642Z,46.30
2019-05-14T08:08:41.505Z,45.60
2019-05-14T08:11:12.876Z,43.70
2019-05-14T08:13:43.198Z,42.10
2019-05-14T08:16:13.474Z,42.40
2019-05-14T08:18:43.724Z,42.10
2019-05-14T08:21:13.943Z,41.60
2019-05-14T08:23:44.163Z,41.50
2019-05-14T08:26:14.451Z,41.60
2019-05-14T08:28:44.676Z,41.60
2019-05-14T08:31:14.888Z,42.00
2019-05-14T08:33:45.143Z,42.20
2019-05-14T08:36:15.342Z,41.50
2019-05-14T08:38:46.509Z,40.90
2019-05-14T08:41:19.758Z,40.80
2019-05-14T08:43:49.666Z,40.70
2019-05-14T08:46:20.009Z,41.20
2019-05-14T08:48:50.229Z,41.60
2019-05-14T08:51:20.514Z,40.80
2019-05-14T08:53:50.788Z,39.90
2019-05-14T08:56:20.960Z,38.80
2019-05-14T08:58:51.198Z,37.90
2019-05-14T09:01:21.404Z,37.40
2019-05-14T09:03:51.626Z,36.20
2019-05-14T09:06:21.936Z,36.30
2019-05-14T09:08:52.209Z,36.90
2019-05-14T09:11:25.106Z,36.60
2019-05-14T09:13:54.380Z,36.70
2019-05-14T09:16:38.336Z,37.10
2019-05-14T09:18:58.150Z,37.40
2019-05-14T09:21:29.633Z,37.00
2019-05-14T09:24:00.118Z,37.70
2019-05-14T09:26:30.439Z,37.10
2019-05-14T09:29:16.933Z,37.80
2019-05-14T09:31:32.701Z,36.70
2019-05-14T09:34:02.900Z,36.50
2019-05-14T09:36:33.150Z,37.20
2019-05-14T09:39:05.019Z,37.20
2019-05-14T09:41:35.383Z,37.50
2019-05-14T09:44:05.659Z,37.90
2019-05-14T09:46:38.277Z,37.20
2019-05-14T09:49:08.114Z,36.50
2019-05-14T09:51:38.618Z,35.50
2019-05-14T09:54:08.839Z,35.60
2019-05-14T09:56:39.652Z,35.90
2019-05-14T09:59:09.853Z,35.90
2019-05-14T10:01:40.085Z,36.80
2019-05-14T10:04:22.129Z,38.00
2019-05-14T10:06:52.388Z,38.10
2019-05-14T10:09:22.589Z,38.30
2019-05-14T10:11:52.805Z,38.70
2019-05-14T10:14:23.045Z,38.20
2019-05-14T10:16:53.251Z,38.60
2019-05-14T10:19:23.481Z,38.00
2019-05-14T10:21:53.690Z,37.00
2019-05-14T10:24:23.934Z,36.20
2019-05-14T10:26:54.145Z,35.50
2019-05-14T10:29:24.679Z,35.20
2019-05-14T10:31:55.690Z,35.00
2019-05-14T10:34:28.729Z,35.20
2019-05-14T10:36:59.346Z,36.30
2019-05-14T10:39:30.059Z,37.00
2019-05-14T10:42:00.419Z,37.50
2019-05-14T10:44:30.651Z,37.50
2019-05-14T10:47:00.870Z,37.00
2019-05-14T10:49:50.417Z,36.30
2019-05-14T10:52:32.930Z,35.10
2019-05-14T10:55:03.217Z,34.80
2019-05-14T10:57:33.447Z,35.60
2019-05-14T11:00:04.495Z,35.30
2019-05-14T11:02:35.059Z,35.20
2019-05-14T11:05:18.709Z,35.30
2019-05-14T11:07:49.102Z,35.40
2019-05-14T11:10:19.671Z,35.20
2019-05-14T11:12:51.505Z,34.70
2019-05-14T11:15:22.016Z,35.50
2019-05-14T11:17:52.253Z,35.40
2019-05-14T11:20:22.873Z,34.90
2019-05-14T11:22:53.159Z,35.20
2019-05-14T11:25:23.527Z,35.30
2019-05-14T11:27:53.759Z,34.90
2019-05-14T11:30:24.685Z,34.80
2019-05-14T11:32:54.923Z,35.10
2019-05-14T11:35:25.139Z,34.90
2019-05-14T11:37:55.362Z,34.20
2019-05-14T11:40:25.586Z,33.60
2019-05-14T11:42:55.749Z,33.30
2019-05-14T11:45:26.378Z,32.80
2019-05-14T11:47:58.427Z,33.10
2019-05-14T11:50:28.934Z,33.60
2019-05-14T11:52:59.268Z,32.20
2019-05-14T11:55:29.471Z,32.50
2019-05-14T11:57:59.700Z,31.80
2019-05-14T12:00:30.847Z,30.50
2019-05-14T12:03:01.575Z,29.60
2019-05-14T12:05:31.791Z,29.80
2019-05-14T12:08:02.035Z,30.40
2019-05-14T12:10:32.226Z,30.00
2019-05-14T12:13:02.536Z,29.80
2019-05-14T12:15:33.930Z,30.20
2019-05-14T12:18:10.450Z,29.80
2019-05-14T12:20:40.432Z,29.90
2019-05-14T12:23:10.701Z,29.70
2019-05-14T12:25:40.890Z,29.70
2019-05-14T12:28:13.647Z,29.00
2019-05-14T12:30:43.034Z,30.00
2019-05-14T12:33:13.258Z,29.60
2019-05-14T12:35:43.468Z,30.20
2019-05-14T12:38:13.680Z,30.90
2019-05-14T12:40:44.440Z,31.00
2019-05-14T12:43:14.673Z,30.90
2019-05-14T12:45:44.873Z,28.90
2019-05-14T12:48:15.093Z,28.40
2019-05-14T12:50:48.645Z,29.50
2019-05-14T12:53:19.912Z,29.70
2019-05-14T12:55:49.700Z,30.30
2019-05-14T12:58:20.490Z,30.20
2019-05-14T13:00:50.861Z,30.50
2019-05-14T13:03:21.091Z,29.90
2019-05-14T13:05:51.448Z,30.00
2019-05-14T13:08:21.690Z,30.30
2019-05-14T13:10:51.891Z,30.50
2019-05-14T13:13:42.848Z,30.80
2019-05-14T13:16:13.315Z,30.60
2019-05-14T13:18:43.550Z,29.60
2019-05-14T13:21:13.781Z,30.00
2019-05-14T13:23:44.013Z,31.10
2019-05-14T13:26:14.299Z,31.70
2019-05-14T13:28:44.512Z,31.70
2019-05-14T13:31:14.739Z,31.40
2019-05-14T13:33:44.972Z,32.00
2019-05-14T13:36:15.209Z,32.70
2019-05-14T13:38:45.507Z,33.80
2019-05-14T13:41:15.706Z,34.50
2019-05-14T13:43:45.933Z,35.40
2019-05-14T13:46:18.809Z,35.70
2019-05-14T13:48:49.947Z,35.90
2019-05-14T13:51:20.021Z,35.00
2019-05-14T13:53:50.202Z,35.40
2019-05-14T13:56:20.446Z,35.30
2019-05-14T13:58:50.692Z,33.90
2019-05-14T14:01:20.896Z,33.60
2019-05-14T14:04:04.276Z,33.20
2019-05-14T14:06:23.046Z,31.80
2019-05-14T14:08:53.261Z,32.40
2019-05-14T14:11:23.486Z,33.10
2019-05-14T14:13:53.684Z,32.60
2019-05-14T14:16:23.999Z,33.10
2019-05-14T14:18:54.225Z,33.50
2019-05-14T14:21:24.454Z,34.00
2019-05-14T14:23:54.696Z,34.80
2019-05-14T14:26:25.252Z,35.00
2019-05-14T14:28:55.485Z,35.70
2019-05-14T14:31:25.703Z,36.50
2019-05-14T14:33:55.921Z,36.40
2019-05-14T14:36:29.575Z,35.30
2019-05-14T14:38:58.785Z,34.00
2019-05-14T14:41:29.172Z,34.30
2019-05-14T14:43:59.384Z,34.80
2019-05-14T14:46:29.688Z,35.40
2019-05-14T14:49:02.634Z,34.00
2019-05-14T14:51:31.940Z,34.10
2019-05-14T14:54:10.616Z,33.80
2019-05-14T14:56:34.091Z,33.30
2019-05-14T14:59:04.765Z,32.30
2019-05-14T15:01:35.236Z,31.80
2019-05-14T15:04:05.601Z,30.40
2019-05-14T15:06:39.444Z,30.80
2019-05-14T15:09:09.751Z,31.80
2019-05-14T15:11:40.072Z,28.80
2019-05-14T15:14:10.384Z,25.90
2019-05-14T15:16:40.604Z,24.70
2019-05-14T15:19:10.899Z,23.40
2019-05-14T15:21:41.144Z,21.70
2019-05-14T15:24:15.369Z,19.00
2019-05-14T15:26:43.416Z,18.00
2019-05-14T15:29:13.805Z,16.10
2019-05-14T15:31:44.015Z,16.70
2019-05-14T15:34:14.222Z,15.90
2019-05-14T15:36:44.452Z,16.10
2019-05-14T15:39:14.684Z,17.50
2019-05-14T15:41:44.948Z,17.50
2019-05-14T15:44:15.202Z,20.20
2019-05-14T15:46:45.434Z,21.00
2019-05-14T15:49:15.717Z,20.20
2019-05-14T15:51:45.921Z,21.60
2019-05-14T15:54:35.965Z,23.90
2019-05-14T15:56:49.362Z,26.10
2019-05-14T15:59:19.787Z,27.50
2019-05-14T16:01:50.004Z,28.80
2019-05-14T16:04:20.855Z,29.70
2019-05-14T16:06:52.316Z,30.80
2019-05-14T16:09:22.534Z,33.30
2019-05-14T16:11:52.770Z,33.50
2019-05-14T16:14:23.061Z,33.60
2019-05-14T16:16:53.264Z,33.80
2019-05-14T16:19:23.493Z,33.80
2019-05-14T16:21:53.731Z,33.70
2019-05-14T16:24:23.959Z,33.00
2019-05-14T16:26:54.172Z,33.10
2019-05-14T16:29:40.291Z,33.60
2019-05-14T16:31:58.186Z,34.90
2019-05-14T16:34:28.786Z,34.80
2019-05-14T16:36:59.032Z,34.90
2019-05-14T16:39:29.278Z,35.10
2019-05-14T16:41:59.511Z,35.30
2019-05-14T16:44:29.766Z,35.60
2019-05-14T16:46:59.986Z,35.70
2019-05-14T16:49:33.461Z,36.70
2019-05-14T16:52:02.192Z,38.50
2019-05-14T16:54:32.403Z,39.70
2019-05-14T16:57:02.618Z,40.50
2019-05-14T16:59:32.830Z,41.20
2019-05-14T17:02:03.032Z,44.00
2019-05-14T17:04:33.274Z,45.40
2019-05-14T17:07:03.501Z,48.10
2019-05-14T17:09:33.802Z,49.50
2019-05-14T17:12:04.019Z,50.00
2019-05-14T17:14:34.265Z,51.00
2019-05-14T17:17:04.565Z,51.40
2019-05-14T17:19:34.788Z,51.40
2019-05-14T17:22:23.332Z,51.40
2019-05-14T17:24:39.482Z,51.70
2019-05-14T17:27:08.917Z,51.10
2019-05-14T17:29:39.203Z,50.60
2019-05-14T17:32:09.400Z,49.40
2019-05-14T17:34:39.615Z,48.10
2019-05-14T17:37:09.861Z,48.00
2019-05-14T17:39:41.740Z,47.40
2019-05-14T17:42:12.058Z,47.30
2019-05-14T17:44:42.370Z,46.90
2019-05-14T17:47:13.445Z,47.00
2019-05-14T17:49:44.028Z,47.60
2019-05-14T17:52:14.283Z,48.30
2019-05-14T17:54:56.788Z,48.70
2019-05-14T17:57:34.067Z,49.20
2019-05-14T17:59:58.955Z,49.70
2019-05-14T18:02:29.208Z,50.10
2019-05-14T18:04:59.495Z,50.10
2019-05-14T18:07:29.747Z,50.00
2019-05-14T18:10:00.011Z,50.30
2019-05-14T18:12:30.882Z,50.50
2019-05-14T18:15:01.308Z,50.50
2019-05-14T18:17:31.563Z,50.80
2019-05-14T18:20:01.899Z,51.10
2019-05-14T18:22:32.127Z,50.90
2019-05-14T18:25:02.356Z,50.60
2019-05-14T18:27:32.563Z,50.70
2019-05-14T18:30:02.776Z,50.50
2019-05-14T18:32:32.978Z,51.50
2019-05-14T18:35:03.178Z,51.70
2019-05-14T18:37:33.401Z,51.70
2019-05-14T18:40:05.455Z,51.70
2019-05-14T18:42:35.684Z,51.70
2019-05-14T18:45:08.604Z,51.90
2019-05-14T18:47:39.774Z,52.30
2019-05-14T18:50:11.410Z,52.60
2019-05-14T18:52:41.640Z,52.50
2019-05-14T18:55:12.373Z,52.60
2019-05-14T18:57:42.600Z,52.60
2019-05-14T19:00:14.104Z,52.90
2019-05-14T19:02:44.388Z,53.30
2019-05-14T19:05:15.121Z,53.30
2019-05-14T19:07:45.332Z,53.60
2019-05-14T19:10:18.402Z,53.90
2019-05-14T19:12:49.944Z,53.90
2019-05-14T19:15:19.801Z,54.10
2019-05-14T19:17:50.023Z,54.80
2019-05-14T19:20:20.265Z,54.50
2019-05-14T19:22:50.446Z,54.90
2019-05-14T19:25:20.660Z,55.60
2019-05-14T19:27:50.867Z,55.20
2019-05-14T19:30:21.211Z,55.30
2019-05-14T19:32:51.478Z,55.40
2019-05-14T19:35:21.888Z,55.50
2019-05-14T19:37:52.093Z,55.60
2019-05-14T19:40:22.360Z,55.80
2019-05-14T19:42:52.601Z,56.00
2019-05-14T19:45:22.975Z,56.30
2019-05-14T19:47:53.192Z,56.60
2019-05-14T19:50:23.482Z,56.40
2019-05-14T19:52:53.786Z,56.70
2019-05-14T19:55:24.007Z,56.90
2019-05-14T19:57:54.301Z,57.30
2019-05-14T20:00:28.845Z,57.50
2019-05-14T20:02:58.534Z,57.70
2019-05-14T20:05:28.823Z,58.00
2019-05-14T20:07:59.046Z,58.60
2019-05-14T20:10:29.533Z,59.00
2019-05-14T20:12:59.833Z,59.30
2019-05-14T20:15:30.038Z,60.00
2019-05-14T20:18:00.289Z,60.60
2019-05-14T20:20:30.497Z,61.10
2019-05-14T20:23:00.696Z,61.90
2019-05-14T20:25:30.978Z,62.30
2019-05-14T20:28:01.183Z,62.90
2019-05-14T20:30:31.465Z,63.20
2019-05-14T20:33:01.693Z,63.20
2019-05-14T20:35:34.945Z,64.00
2019-05-14T20:38:03.809Z,64.20
2019-05-14T20:40:34.023Z,64.30
2019-05-14T20:43:04.213Z,65.10
2019-05-14T20:45:34.494Z,65.50
2019-05-14T20:48:05.002Z,65.90
2019-05-14T20:50:38.469Z,66.40
2019-05-14T20:53:09.150Z,66.60
2019-05-14T20:55:40.101Z,66.70
2019-05-14T20:58:10.318Z,66.80
2019-05-14T21:00:50.259Z,66.50
2019-05-14T21:03:22.528Z,67.40
2019-05-14T21:05:52.744Z,67.50
2019-05-14T21:08:22.953Z,67.50
2019-05-14T21:10:53.168Z,67.90
2019-05-14T21:13:23.382Z,67.80
2019-05-14T21:15:53.610Z,67.80
2019-05-14T21:18:34.727Z,68.00
2019-05-14T21:20:56.777Z,68.40
2019-05-14T21:23:26.982Z,68.70
2019-05-14T21:25:57.203Z,69.10
2019-05-14T21:28:29.843Z,69.70
2019-05-14T21:30:59.326Z,70.10
2019-05-14T21:33:30.363Z,70.50
2019-05-14T21:36:00.780Z,71.00
2019-05-14T21:38:30.979Z,71.50
2019-05-14T21:41:01.256Z,72.00
2019-05-14T21:43:31.462Z,72.30
2019-05-14T21:46:01.659Z,72.90
2019-05-14T21:48:31.841Z,73.10
2019-05-14T21:51:02.022Z,73.40
2019-05-14T21:53:32.285Z,73.80
2019-05-14T21:56:02.481Z,74.30
2019-05-14T21:58:32.699Z,74.80
2019-05-14T22:01:03.589Z,75.20
2019-05-14T22:03:33.876Z,75.60
2019-05-14T22:06:04.210Z,76.00
2019-05-14T22:08:34.419Z,76.10
2019-05-14T22:11:04.701Z,76.30
2019-05-14T22:13:34.913Z,76.30
2019-05-14T22:16:05.107Z,77.00
2019-05-14T22:18:35.359Z,77.20
2019-05-14T22:21:05.759Z,77.10
2019-05-14T22:23:38.525Z,77.60
2019-05-14T22:26:07.867Z,77.70
2019-05-14T22:28:38.101Z,78.10
2019-05-14T22:31:09.141Z,79.60
2019-05-14T22:33:39.584Z,79.30
2019-05-14T22:36:09.783Z,79.80
2019-05-14T22:38:40.057Z,80.80
2019-05-14T22:41:11.617Z,81.10
2019-05-14T22:43:41.925Z,81.00
2019-05-14T22:46:12.132Z,81.30
2019-05-14T22:48:42.430Z,81.80
2019-05-14T22:51:13.766Z,82.30
2019-05-14T22:53:43.952Z,82.40
2019-05-14T22:56:14.166Z,82.90
2019-05-14T22:58:44.325Z,83.10
2019-05-14T23:01:15.317Z,84.10
2019-05-14T23:03:45.611Z,84.10
2019-05-14T23:06:15.849Z,84.60
2019-05-14T23:08:48.467Z,84.70
2019-05-14T23:11:19.798Z,85.80
2019-05-14T23:13:49.881Z,86.20
2019-05-14T23:16:33.458Z,86.60
2019-05-14T23:18:52.019Z,87.00
2019-05-14T23:21:22.257Z,87.70
2019-05-14T23:23:52.449Z,87.70
2019-05-14T23:26:22.709Z,88.00
2019-05-14T23:28:52.923Z,88.00
2019-05-14T23:31:23.287Z,88.50
2019-05-14T23:33:53.482Z,88.40
2019-05-14T23:36:23.691Z,88.20
2019-05-14T23:38:54.960Z,88.30
2019-05-14T23:41:25.194Z,88.20
2019-05-14T23:43:55.441Z,88.20
2019-05-14T23:46:25.645Z,89.10
2019-05-14T23:48:55.867Z,88.90
2019-05-14T23:51:26.063Z,88.90
2019-05-14T23:53:56.302Z,90.00
2019-05-14T23:56:28.671Z,90.20
2019-05-14T23:59:01.865Z,90.30
